Albenga, Italy

4:53 PM CEST on April 01, 2015 (GMT +0200)
Andora - colla micheri | | Change Station
CLOSE
Current Station
Personal Weather Station
Location: Andora,
Elevation: 577 ft
Nearby Weather Stations

Elev 577 ft 43.97 °N, 8.15 °E | Updated 7 minutes ago

Partly Cloudy
Partly Cloudy
61.3 °F
Feels Like 61.3 °F
N
10.0
Wind Variable Wind from SSE
Gusts 10.0 mph

Today
High -- | Low -- °F
--% Chance of Precip.
Yesterday
High -- | Low -- °F
Precip. -- in
7:09 AM 7:53 PM
Waxing Gibbous, 93% visible
Pressure 29.95 in
Visibility 6.2 miles
Clouds Few 4000 ft
Dew Point 32 °F
Humidity 33%
Rainfall 0.00 in
Snow Depth Not available.
UV 5 out of 12
Pollen Not available.
Air Quality Not available.
Flu Activity Not available.
METAR LIMU 011355Z 22020KT 9999 FEW040 16/03 Q1014 RMK FEW QUK 3 QUL 1 E VIS MAR 25 KM VIS MIN 9999

More Conditions Fewer Conditions

Pressure 29.95 in
Visibility 6.2 miles
Clouds Few 4000 ft
Dew Point 32 °F
Humidity 33%
Rainfall 0.00 in
Snow Depth Not available.
UV 5 out of 12
Pollen Not available.
Air Quality Not available.
Flu Activity Not available.
METAR LIMU 011355Z 22020KT 9999 FEW040 16/03 Q1014 RMK FEW QUK 3 QUL 1 E VIS MAR 25 KM VIS MIN 9999

More Conditions Fewer Conditions

10-Day Weather Forecast

Almanac

Astronomy

Apr. 01, 2015 Rise Set
Actual Time
Civil Twilight
Nautical Twilight
Astronomical Twilight
Moon
Length of Visible Light
Length of Day
Tomorrow will be .
, % of the Moon is Illuminated

Today's Extremes

Country Highs Country Lows

Community

WunderPhotos

Upload Photos

1,809,974 photos uploaded!

WunderBlogs® & News

Nearby

Air Quality

  Air Quality AQ Index Pollutant
Not available.

Snow Depth

Station Depth Elevation

Earthquake Activity

City Distance Mag. Time & Date
Minimum magnitude displayed is 2.5.

Coastal Water Temperatures

Place Temperature

Stations

Nearby Weather Stations

Station Location Temp. Windchill Dew Point Humidity Wind Precip. Elev Updated Type